Time;durP1;ratioP1;P1;durP2;ratioP2;P2;SDS_P1;SDS_P2;PMS_P1;PMS_P2;Temp;Humidity;BMP_temperature;BMP_pressure;BME280_temperature;BME280_humidity;BME280_pressure;Samples;Min_cycle;Max_cycle;Signal;HPM_P1;HPM_P2
2023/02/27 00:02:20;;;;;;;0.98;0.10;;;7.90;96.70;;;;;;5104360;28;20093;-73
2023/02/27 00:04:50;;;;;;;0.20;0.10;;;7.90;96.70;;;;;;5101294;28;20043;-72
2023/02/27 00:07:18;;;;;;;0.10;0.00;;;7.90;96.70;;;;;;5086226;28;20120;-73
2023/02/27 00:09:46;;;;;;;0.63;0.00;;;7.90;96.70;;;;;;5093013;28;20055;-73
2023/02/27 00:12:13;;;;;;;0.00;0.00;;;7.90;96.70;;;;;;5095713;28;20100;-73
2023/02/27 00:14:43;;;;;;;0.45;0.08;;;7.90;96.70;;;;;;5103258;28;20544;-71
2023/02/27 00:17:11;;;;;;;0.43;0.00;;;7.90;96.70;;;;;;5103006;28;20120;-71
2023/02/27 00:19:38;;;;;;;0.10;0.00;;;7.90;96.70;;;;;;5093078;28;20491;-72
2023/02/27 00:22:06;;;;;;;1.02;0.10;;;7.90;96.70;;;;;;5094183;28;20040;-71
2023/02/27 00:24:34;;;;;;;0.25;0.00;;;7.90;96.70;;;;;;5093543;28;20124;-71
2023/02/27 00:27:02;;;;;;;0.90;0.00;;;7.90;96.70;;;;;;5085160;28;20047;-71
2023/02/27 00:29:30;;;;;;;0.47;0.10;;;7.90;96.70;;;;;;5092371;28;20081;-72
2023/02/27 00:32:00;;;;;;;0.22;0.00;;;7.90;96.70;;;;;;5093402;28;20048;-71
2023/02/27 00:34:28;;;;;;;0.20;0.10;;;7.90;96.70;;;;;;5099757;28;20039;-71
2023/02/27 00:36:56;;;;;;;0.25;0.00;;;7.80;96.70;;;;;;5102682;28;20718;-73
2023/02/27 00:39:24;;;;;;;0.10;0.10;;;7.80;96.70;;;;;;5091811;28;20050;-74
2023/02/27 00:41:52;;;;;;;0.32;0.00;;;7.90;96.70;;;;;;5090436;28;20050;-73
2023/02/27 00:44:20;;;;;;;0.03;0.00;;;7.90;96.70;;;;;;5092730;28;20124;-73
2023/02/27 00:46:47;;;;;;;0.30;0.20;;;7.90;96.70;;;;;;5099944;28;20040;-71
2023/02/27 00:49:18;;;;;;;0.88;0.10;;;7.90;96.70;;;;;;5092607;28;20644;-71
2023/02/27 00:51:46;;;;;;;0.75;0.08;;;7.80;96.70;;;;;;5099455;28;20054;-71
2023/02/27 00:54:14;;;;;;;0.32;0.00;;;7.90;96.70;;;;;;5066484;28;20040;-71
2023/02/27 00:56:42;;;;;;;0.52;0.20;;;7.80;96.70;;;;;;5092862;28;20055;-74
2023/02/27 00:59:10;;;;;;;0.82;0.10;;;7.90;96.70;;;;;;5071193;28;20036;-73
2023/02/27 01:01:38;;;;;;;0.45;0.00;;;7.80;96.70;;;;;;5090146;28;20135;-71
2023/02/27 01:04:06;;;;;;;0.25;0.00;;;7.90;96.70;;;;;;5090501;28;20059;-71
2023/02/27 01:06:36;;;;;;;0.20;0.10;;;7.90;96.70;;;;;;5099464;28;20097;-71
2023/02/27 01:09:04;;;;;;;0.17;0.00;;;7.90;96.70;;;;;;5099736;28;20113;-71
2023/02/27 01:11:32;;;;;;;0.20;0.10;;;7.90;96.70;;;;;;5070841;28;20048;-74
2023/02/27 01:14:00;;;;;;;0.38;0.00;;;7.90;96.70;;;;;;5089094;28;20516;-74
2023/02/27 01:16:32;;;;;;;0.17;0.08;;;7.90;96.70;;;;;;5092398;28;20093;-73
2023/02/27 01:18:59;;;;;;;1.00;0.05;;;7.90;96.70;;;;;;5098901;28;20039;-72
2023/02/27 01:21:27;;;;;;;0.05;0.00;;;7.90;96.70;;;;;;5066746;28;20040;-71
2023/02/27 01:23:57;;;;;;;0.00;0.00;;;8.00;96.70;;;;;;5100178;28;20057;-71
2023/02/27 01:26:25;;;;;;;0.20;0.10;;;7.90;96.70;;;;;;5099971;28;20712;-71
2023/02/27 01:28:53;;;;;;;0.63;0.00;;;7.90;96.70;;;;;;5092835;28;20113;-73
2023/02/27 01:31:21;;;;;;;0.00;0.00;;;7.90;96.70;;;;;;5083432;28;20067;-73
2023/02/27 01:33:49;;;;;;;0.88;0.25;;;8.00;96.70;;;;;;5098796;28;20062;-73
2023/02/27 01:36:17;;;;;;;0.65;0.10;;;8.00;96.70;;;;;;5102286;28;20134;-73
2023/02/27 01:38:45;;;;;;;1.67;0.08;;;7.90;96.70;;;;;;5086139;28;20040;-73
2023/02/27 01:41:14;;;;;;;0.20;0.00;;;8.00;96.70;;;;;;5070924;28;20127;-73
2023/02/27 01:44:00;;;;;;;0.22;0.10;;;7.90;96.70;;;;;;5093005;28;20831;-73
2023/02/27 01:46:30;;;;;;;0.10;0.00;;;7.90;96.70;;;;;;5078471;28;20055;-71
2023/02/27 01:49:02;;;;;;;0.65;0.10;;;7.90;96.70;;;;;;5098752;28;20051;-71
2023/02/27 01:51:33;;;;;;;0.35;0.00;;;7.90;96.70;;;;;;5093297;28;20059;-71
2023/02/27 01:54:04;;;;;;;0.30;0.00;;;7.90;96.70;;;;;;5099670;28;20071;-71
2023/02/27 01:56:34;;;;;;;0.20;0.10;;;7.90;96.70;;;;;;5099459;28;20101;-71
2023/02/27 01:59:06;;;;;;;1.27;0.10;;;7.90;96.70;;;;;;5098571;28;20107;-71
2023/02/27 02:01:35;;;;;;;0.75;0.10;;;7.90;96.70;;;;;;5093097;28;20052;-73
2023/02/27 02:04:10;;;;;;;1.50;0.10;;;8.00;96.70;;;;;;5101280;28;20042;-74
2023/02/27 02:06:42;;;;;;;0.30;0.00;;;8.00;96.70;;;;;;5098266;28;20077;-73
2023/02/27 02:09:12;;;;;;;1.08;0.10;;;8.00;96.70;;;;;;5099820;28;20135;-71
2023/02/27 02:11:43;;;;;;;1.33;0.10;;;8.00;96.70;;;;;;5083527;28;20099;-71
2023/02/27 02:14:11;;;;;;;0.10;0.10;;;8.00;96.70;;;;;;5088627;28;20048;-71
2023/02/27 02:17:03;;;;;;;0.03;0.00;;;8.00;96.70;;;;;;5084556;28;20077;-71
2023/02/27 02:20:06;;;;;;;0.40;0.10;;;8.00;96.70;;;;;;5098699;28;20052;-71
2023/02/27 02:23:25;;;;;;;0.55;0.10;;;8.10;96.70;;;;;;5072977;28;20055;-71
2023/02/27 02:26:34;;;;;;;1.08;0.00;;;8.00;96.70;;;;;;5019767;28;20059;-71
2023/02/27 02:29:35;;;;;;;0.10;0.00;;;8.00;96.70;;;;;;5044483;28;20055;-73
2023/02/27 02:32:29;;;;;;;0.15;0.03;;;7.90;96.70;;;;;;5014950;28;20140;-72
2023/02/27 02:35:32;;;;;;;0.20;0.00;;;8.00;96.70;;;;;;5051342;28;20048;-72
2023/02/27 02:38:53;;;;;;;0.17;0.00;;;8.00;96.70;;;;;;5026019;28;20049;-72
2023/02/27 02:41:30;;;;;;;0.25;0.00;;;7.90;96.70;;;;;;5019988;28;20053;-71
2023/02/27 02:44:05;;;;;;;0.55;0.10;;;7.90;96.70;;;;;;5019797;28;20056;-72
2023/02/27 02:46:40;;;;;;;0.22;0.08;;;7.90;96.70;;;;;;5023307;28;20460;-72
2023/02/27 02:49:15;;;;;;;0.10;0.10;;;8.00;96.70;;;;;;5000618;28;20052;-72
2023/02/27 02:51:49;;;;;;;2.28;0.10;;;7.90;96.70;;;;;;5032929;28;20126;-72
2023/02/27 02:54:27;;;;;;;0.75;0.10;;;7.90;96.70;;;;;;5041999;28;20045;-72
2023/02/27 02:57:04;;;;;;;0.22;0.05;;;7.90;96.70;;;;;;5072295;28;20044;-71
2023/02/27 02:59:38;;;;;;;0.45;0.00;;;7.80;96.70;;;;;;5085867;28;20489;-71
2023/02/27 03:02:09;;;;;;;0.20;0.00;;;7.80;96.70;;;;;;5095238;28;20101;-71
2023/02/27 03:04:41;;;;;;;0.25;0.10;;;7.80;96.70;;;;;;5099010;28;20075;-71
2023/02/27 03:07:18;;;;;;;0.73;0.20;;;7.80;96.70;;;;;;5065503;28;20713;-72
2023/02/27 03:09:52;;;;;;;0.10;0.03;;;7.80;96.70;;;;;;5091142;28;20047;-71
2023/02/27 03:12:23;;;;;;;0.38;0.05;;;7.80;96.70;;;;;;5082845;28;20653;-71
2023/02/27 03:14:57;;;;;;;0.43;0.00;;;7.80;96.70;;;;;;5099471;28;20043;-75
2023/02/27 03:17:32;;;;;;;0.00;0.00;;;7.80;96.70;;;;;;5101096;28;20071;-71
2023/02/27 03:20:07;;;;;;;0.43;0.10;;;7.80;96.70;;;;;;5088039;28;20055;-72
2023/02/27 03:22:41;;;;;;;0.15;0.00;;;7.80;96.70;;;;;;5079716;28;20048;-74
2023/02/27 03:25:13;;;;;;;0.30;0.10;;;7.80;96.70;;;;;;5100155;28;20519;-73
2023/02/27 03:27:52;;;;;;;0.20;0.00;;;7.80;96.70;;;;;;5081171;28;20048;-73
2023/02/27 03:30:26;;;;;;;0.15;0.05;;;7.90;96.70;;;;;;5087283;28;20217;-73
2023/02/27 03:33:01;;;;;;;0.13;0.03;;;7.90;96.70;;;;;;5085985;28;20206;-73
2023/02/27 03:35:46;;;;;;;0.40;0.10;;;7.90;96.70;;;;;;5089282;28;20051;-71
2023/02/27 03:38:21;;;;;;;0.75;0.10;;;7.80;96.70;;;;;;5070842;28;20051;-71
2023/02/27 03:41:03;;;;;;;0.40;0.10;;;7.90;96.70;;;;;;5078330;28;20465;-72
2023/02/27 03:43:46;;;;;;;0.40;0.03;;;7.90;96.70;;;;;;5100294;28;20054;-73
2023/02/27 03:46:19;;;;;;;0.22;0.10;;;7.90;96.70;;;;;;5087093;28;20040;-73
2023/02/27 03:48:48;;;;;;;0.10;0.05;;;7.90;96.70;;;;;;5102558;28;20588;-72
2023/02/27 03:51:18;;;;;;;0.40;0.10;;;7.90;96.70;;;;;;5099365;28;20044;-73
2023/02/27 03:53:50;;;;;;;0.30;0.00;;;8.00;96.70;;;;;;5082519;28;20054;-72
2023/02/27 03:56:27;;;;;;;0.40;0.10;;;8.00;96.70;;;;;;5068422;28;20053;-72
2023/02/27 03:58:57;;;;;;;0.60;0.10;;;8.00;96.70;;;;;;5101742;28;20051;-70
2023/02/27 04:01:25;;;;;;;0.85;0.10;;;8.00;96.70;;;;;;5099485;28;20055;-70
2023/02/27 04:03:58;;;;;;;0.10;0.00;;;8.00;96.70;;;;;;5093030;28;20071;-70
2023/02/27 04:10:02;;;;;;;0.10;0.08;;;8.00;96.70;;;;;;5083969;28;20051;-71
2023/02/27 04:12:51;;;;;;;0.20;0.13;;;8.00;96.70;;;;;;5087377;28;20460;-70
2023/02/27 04:15:28;;;;;;;0.20;0.00;;;8.00;96.70;;;;;;5091971;28;20603;-70
2023/02/27 04:18:09;;;;;;;0.00;0.00;;;8.00;96.70;;;;;;5079973;28;20056;-72
2023/02/27 04:20:42;;;;;;;0.43;0.03;;;8.00;96.70;;;;;;5103520;28;20047;-70
2023/02/27 04:23:15;;;;;;;0.22;0.00;;;8.00;96.70;;;;;;5102359;28;20047;-70
2023/02/27 04:25:55;;;;;;;0.47;0.10;;;7.90;96.70;;;;;;5094138;28;20093;-70
2023/02/27 04:28:32;;;;;;;0.63;0.00;;;8.00;96.70;;;;;;5084780;28;20499;-71
2023/02/27 04:31:08;;;;;;;2.90;0.20;;;8.00;96.70;;;;;;5101847;28;20040;-71
2023/02/27 04:33:45;;;;;;;0.65;0.10;;;8.00;96.70;;;;;;5094177;27;20130;-71
2023/02/27 04:36:18;;;;;;;0.00;0.00;;;8.00;96.70;;;;;;5103046;28;20054;-71
2023/02/27 04:38:50;;;;;;;0.17;0.10;;;8.00;96.70;;;;;;5092329;28;20049;-71
2023/02/27 04:41:22;;;;;;;0.20;0.00;;;7.90;96.70;;;;;;5083796;28;20672;-71
2023/02/27 04:43:53;;;;;;;0.93;0.35;;;7.90;96.70;;;;;;5092128;28;20051;-71
2023/02/27 04:46:25;;;;;;;1.38;0.10;;;7.90;96.70;;;;;;5085673;28;20051;-71
2023/02/27 04:48:58;;;;;;;0.10;0.00;;;7.90;96.70;;;;;;5101017;28;20059;-71
2023/02/27 04:51:31;;;;;;;0.30;0.05;;;8.00;96.70;;;;;;5078830;28;20510;-73
2023/02/27 04:54:05;;;;;;;0.10;0.00;;;8.00;96.70;;;;;;5089508;28;20043;-74
2023/02/27 04:56:35;;;;;;;0.60;0.10;;;7.90;96.70;;;;;;5092891;28;20519;-71
2023/02/27 04:59:08;;;;;;;0.17;0.10;;;8.00;96.70;;;;;;5082918;28;20043;-72
2023/02/27 05:01:40;;;;;;;0.57;0.10;;;8.00;96.70;;;;;;5098442;28;20505;-71
2023/02/27 05:04:13;;;;;;;0.17;0.10;;;8.00;96.70;;;;;;5094041;28;20040;-71
2023/02/27 05:06:46;;;;;;;0.08;0.00;;;8.00;96.70;;;;;;5101188;28;20117;-70
2023/02/27 05:09:19;;;;;;;0.10;0.03;;;8.00;96.70;;;;;;5087601;28;20055;-71
2023/02/27 05:11:52;;;;;;;0.30;0.10;;;7.90;96.70;;;;;;5101885;28;20056;-71
2023/02/27 05:14:37;;;;;;;;;;;7.90;96.70;;;;;;5097315;28;20607;-71
2023/02/27 05:17:10;;;;;;;0.00;0.00;;;7.90;96.70;;;;;;5093026;28;19927;-71
2023/02/27 05:19:41;;;;;;;0.10;0.08;;;7.90;96.70;;;;;;5090422;28;20036;-74
2023/02/27 05:22:21;;;;;;;0.10;0.10;;;8.10;96.70;;;;;;5089819;28;20049;-71
2023/02/27 05:24:56;;;;;;;0.88;0.00;;;8.00;96.70;;;;;;5080373;28;20050;-72
2023/02/27 05:27:32;;;;;;;0.08;0.08;;;8.00;96.70;;;;;;5074049;28;20055;-72
2023/02/27 05:30:08;;;;;;;0.10;0.10;;;8.00;96.70;;;;;;5097157;28;20492;-72
2023/02/27 05:32:43;;;;;;;0.25;0.00;;;8.00;96.70;;;;;;5092842;28;20036;-71
2023/02/27 05:35:17;;;;;;;0.20;0.00;;;8.00;96.70;;;;;;5102918;28;20481;-71
2023/02/27 05:37:48;;;;;;;0.00;0.00;;;8.00;96.70;;;;;;5080481;28;20444;-71
2023/02/27 05:40:22;;;;;;;0.10;0.03;;;8.00;96.70;;;;;;5095355;28;20035;-70
2023/02/27 05:42:57;;;;;;;0.00;0.00;;;8.00;96.70;;;;;;5095075;28;20118;-72
2023/02/27 05:45:31;;;;;;;0.15;0.00;;;8.00;96.70;;;;;;5071904;28;20515;-71
2023/02/27 05:48:04;;;;;;;0.10;0.00;;;8.00;96.70;;;;;;5083607;28;20071;-72
2023/02/27 05:50:36;;;;;;;0.20;0.10;;;7.90;96.70;;;;;;5082228;28;20056;-74
2023/02/27 05:53:08;;;;;;;0.17;0.08;;;7.90;96.70;;;;;;5097996;28;20048;-73
2023/02/27 05:55:40;;;;;;;0.00;0.00;;;7.90;96.70;;;;;;5100097;28;20513;-73
2023/02/27 05:58:15;;;;;;;0.20;0.00;;;7.90;96.70;;;;;;5099855;28;20132;-73
2023/02/27 06:00:48;;;;;;;0.03;0.00;;;7.90;96.70;;;;;;5088816;28;20105;-73
2023/02/27 06:03:16;;;;;;;0.20;0.00;;;7.90;96.70;;;;;;5065002;28;20047;-73
2023/02/27 06:05:45;;;;;;;0.00;0.00;;;7.90;96.70;;;;;;5086188;28;20565;-74
2023/02/27 06:08:13;;;;;;;0.00;0.00;;;7.90;96.70;;;;;;5094834;28;21149;-73
2023/02/27 06:10:41;;;;;;;0.22;0.00;;;7.90;96.70;;;;;;5095981;28;20646;-71
2023/02/27 06:13:09;;;;;;;0.00;0.00;;;7.90;96.70;;;;;;5101510;28;20052;-71
2023/02/27 06:15:37;;;;;;;0.00;0.00;;;7.90;96.70;;;;;;5096451;28;20122;-71
2023/02/27 06:18:06;;;;;;;0.00;0.00;;;7.90;96.70;;;;;;5091277;28;20489;-71
2023/02/27 06:20:34;;;;;;;0.08;0.08;;;7.80;96.70;;;;;;5068119;28;20040;-74
2023/02/27 06:23:03;;;;;;;0.28;0.00;;;7.80;96.70;;;;;;5100906;28;20058;-74
2023/02/27 06:25:31;;;;;;;1.17;0.03;;;7.80;96.70;;;;;;5098237;28;20047;-73
2023/02/27 06:27:59;;;;;;;0.00;0.00;;;7.90;96.70;;;;;;5084229;28;20073;-73
2023/02/27 06:30:28;;;;;;;0.00;0.00;;;7.90;96.70;;;;;;5101223;28;20043;-71
2023/02/27 06:33:02;;;;;;;0.47;0.10;;;7.90;96.70;;;;;;5092723;28;20055;-74
2023/02/27 06:35:32;;;;;;;0.20;0.00;;;7.90;96.70;;;;;;5099598;28;20058;-74
2023/02/27 06:38:00;;;;;;;0.00;0.00;;;7.90;96.70;;;;;;5092119;28;20120;-73
2023/02/27 06:40:28;;;;;;;0.00;0.00;;;8.00;96.70;;;;;;5092123;28;20044;-74
2023/02/27 06:42:57;;;;;;;0.20;0.00;;;8.10;96.70;;;;;;5093839;28;20127;-72
2023/02/27 06:45:25;;;;;;;1.50;0.00;;;8.10;96.70;;;;;;5097879;28;20047;-71
2023/02/27 06:47:53;;;;;;;0.00;0.00;;;8.20;96.70;;;;;;5086260;28;20680;-71
2023/02/27 06:50:22;;;;;;;0.17;0.10;;;8.20;96.70;;;;;;5085976;28;20463;-70
2023/02/27 06:52:52;;;;;;;0.00;0.00;;;8.20;96.70;;;;;;5094394;28;20078;-71
2023/02/27 06:55:21;;;;;;;0.10;0.00;;;8.20;96.70;;;;;;5078335;28;20537;-70
2023/02/27 06:57:49;;;;;;;0.00;0.00;;;8.30;96.70;;;;;;5092411;28;20046;-70
2023/02/27 07:00:18;;;;;;;0.20;0.00;;;8.30;96.70;;;;;;5097289;28;20085;-71
2023/02/27 07:02:46;;;;;;;0.10;0.00;;;8.40;96.70;;;;;;5098247;28;20504;-70
2023/02/27 07:05:14;;;;;;;0.17;0.00;;;8.40;96.70;;;;;;5094965;28;20051;-71
2023/02/27 07:07:42;;;;;;;0.10;0.00;;;8.40;96.70;;;;;;5105008;28;20044;-70
2023/02/27 07:10:15;;;;;;;0.00;0.00;;;8.40;96.70;;;;;;5104174;28;20047;-73
2023/02/27 07:12:43;;;;;;;0.13;0.00;;;8.50;96.70;;;;;;5070298;28;20059;-73
2023/02/27 07:15:11;;;;;;;0.30;0.10;;;8.50;96.70;;;;;;5096999;28;20043;-72
2023/02/27 07:17:40;;;;;;;0.32;0.00;;;8.50;96.70;;;;;;5097700;28;20393;-70
2023/02/27 07:20:10;;;;;;;0.00;0.00;;;8.50;96.70;;;;;;5100927;28;20115;-70
2023/02/27 07:22:39;;;;;;;0.10;0.00;;;8.60;96.70;;;;;;5104776;28;20127;-71
2023/02/27 07:25:08;;;;;;;0.00;0.00;;;8.60;96.70;;;;;;5092449;28;20046;-71
2023/02/27 07:27:39;;;;;;;0.00;0.00;;;8.60;96.70;;;;;;5096690;28;20051;-70
2023/02/27 07:30:09;;;;;;;0.00;0.00;;;8.60;96.70;;;;;;5103892;28;20043;-71
2023/02/27 07:32:52;;;;;;;0.30;0.00;;;8.60;96.70;;;;;;5103502;28;20047;-72
2023/02/27 07:35:20;;;;;;;0.00;0.00;;;8.70;96.70;;;;;;5095319;28;20043;-73
2023/02/27 07:37:50;;;;;;;0.10;0.00;;;8.70;96.70;;;;;;5091985;28;20050;-72
2023/02/27 07:40:18;;;;;;;0.00;0.00;;;8.70;96.70;;;;;;5073722;28;20574;-72
2023/02/27 07:42:48;;;;;;;0.00;0.00;;;8.70;96.70;;;;;;5098817;28;20035;-74
2023/02/27 07:45:21;;;;;;;0.70;0.10;;;8.70;96.70;;;;;;5094296;28;20055;-72
2023/02/27 07:47:49;;;;;;;0.00;0.00;;;8.80;96.70;;;;;;5095617;28;20058;-71
2023/02/27 07:50:17;;;;;;;0.10;0.00;;;8.80;96.70;;;;;;5073743;28;20497;-70
2023/02/27 07:52:45;;;;;;;0.00;0.00;;;8.80;96.70;;;;;;5101834;28;20819;-71
2023/02/27 07:55:13;;;;;;;0.08;0.00;;;8.90;96.70;;;;;;5073426;28;20052;-71
2023/02/27 07:57:43;;;;;;;0.10;0.00;;;8.90;96.70;;;;;;5096440;28;20040;-72
2023/02/27 08:00:13;;;;;;;0.00;0.00;;;9.00;96.70;;;;;;5095316;28;20047;-71
2023/02/27 08:02:42;;;;;;;0.28;0.00;;;9.00;96.70;;;;;;5095794;28;20051;-71
2023/02/27 08:05:10;;;;;;;0.00;0.00;;;9.10;96.70;;;;;;5094355;28;20700;-72
2023/02/27 08:07:38;;;;;;;0.10;0.00;;;9.20;96.70;;;;;;5083947;28;20040;-71
2023/02/27 08:10:07;;;;;;;0.00;0.00;;;9.30;96.70;;;;;;5094318;28;20130;-70
2023/02/27 08:12:35;;;;;;;0.10;0.00;;;9.40;96.70;;;;;;5083052;28;20067;-71
2023/02/27 08:15:04;;;;;;;0.40;0.10;;;9.50;96.70;;;;;;5096117;28;20532;-71
2023/02/27 08:17:33;;;;;;;0.00;0.00;;;9.50;96.70;;;;;;5101265;28;20117;-71
2023/02/27 08:20:03;;;;;;;0.20;0.10;;;9.60;96.70;;;;;;5098325;28;20044;-72
2023/02/27 08:22:31;;;;;;;0.10;0.00;;;9.60;96.70;;;;;;5081364;28;20802;-71
2023/02/27 08:25:00;;;;;;;1.75;0.10;;;9.60;96.70;;;;;;5094192;28;20408;-72
2023/02/27 08:27:28;;;;;;;0.10;0.00;;;9.70;96.70;;;;;;5082045;28;20132;-72
2023/02/27 08:29:56;;;;;;;0.20;0.00;;;9.70;96.70;;;;;;5093337;28;20055;-70
2023/02/27 08:32:24;;;;;;;0.75;0.03;;;9.80;96.70;;;;;;5092865;28;20044;-71
2023/02/27 08:34:54;;;;;;;0.00;0.00;;;9.80;96.70;;;;;;5099506;28;20088;-71
2023/02/27 08:37:25;;;;;;;0.05;0.00;;;9.80;96.70;;;;;;5098346;28;20100;-71
2023/02/27 08:39:58;;;;;;;0.17;0.00;;;9.70;96.70;;;;;;5082984;28;20543;-71
2023/02/27 08:42:31;;;;;;;1.25;0.10;;;9.70;96.70;;;;;;5092801;28;20404;-71
2023/02/27 08:44:59;;;;;;;0.38;0.08;;;9.80;96.70;;;;;;5093811;28;20509;-71
2023/02/27 08:47:29;;;;;;;0.10;0.03;;;9.80;96.70;;;;;;5098041;28;20075;-71
2023/02/27 08:49:59;;;;;;;0.65;0.10;;;9.70;96.70;;;;;;5101781;28;20044;-70
2023/02/27 08:52:29;;;;;;;0.40;0.17;;;9.80;96.70;;;;;;5073047;28;20090;-70
2023/02/27 08:54:59;;;;;;;0.22;0.00;;;9.80;96.70;;;;;;5080348;28;20138;-71
2023/02/27 08:57:28;;;;;;;0.15;0.05;;;9.80;96.70;;;;;;5094767;28;20490;-70
2023/02/27 08:59:56;;;;;;;0.57;0.20;;;9.80;96.70;;;;;;5059720;28;20071;-70
2023/02/27 09:02:25;;;;;;;1.85;0.05;;;9.80;96.70;;;;;;5091541;28;20047;-69
2023/02/27 09:04:53;;;;;;;0.05;0.03;;;9.80;96.70;;;;;;5084682;28;20113;-71
2023/02/27 09:07:23;;;;;;;0.30;0.10;;;9.90;96.70;;;;;;5092919;28;20846;-70
2023/02/27 09:09:51;;;;;;;1.23;0.05;;;10.00;96.70;;;;;;5069248;28;20048;-71
2023/02/27 09:12:19;;;;;;;0.77;0.20;;;10.10;96.70;;;;;;5083075;28;20388;-70
2023/02/27 09:14:48;;;;;;;0.30;0.10;;;10.00;96.70;;;;;;5082305;28;20054;-70
2023/02/27 09:17:16;;;;;;;0.22;0.00;;;10.00;96.70;;;;;;5102486;28;20051;-71
2023/02/27 09:19:44;;;;;;;0.10;0.10;;;10.10;96.70;;;;;;5103679;28;20048;-71
2023/02/27 09:22:12;;;;;;;0.20;0.10;;;10.20;96.70;;;;;;5103085;28;20051;-71
2023/02/27 09:24:41;;;;;;;0.98;0.10;;;10.20;96.70;;;;;;5102967;28;20410;-71
2023/02/27 09:27:09;;;;;;;0.10;0.00;;;10.20;96.70;;;;;;5092472;28;20058;-71
2023/02/27 09:29:38;;;;;;;0.88;0.10;;;10.20;96.70;;;;;;5100673;28;20067;-71
2023/02/27 09:32:06;;;;;;;0.20;0.10;;;10.30;96.70;;;;;;5093793;28;20039;-72
2023/02/27 09:34:34;;;;;;;0.85;0.05;;;10.30;96.70;;;;;;5093514;28;20440;-73
2023/02/27 09:37:02;;;;;;;0.00;0.00;;;10.20;96.70;;;;;;5094136;28;20045;-72
2023/02/27 09:39:31;;;;;;;1.38;0.10;;;10.20;96.70;;;;;;5102288;28;20066;-70
2023/02/27 09:42:04;;;;;;;1.17;0.10;;;10.20;96.70;;;;;;5096847;28;20074;-72
2023/02/27 09:44:45;;;;;;;0.52;0.05;;;10.20;96.70;;;;;;5083898;28;20051;-72
2023/02/27 09:47:20;;;;;;;0.20;0.10;;;10.20;96.70;;;;;;5097940;28;20047;-72
2023/02/27 09:50:00;;;;;;;0.20;0.10;;;10.30;96.70;;;;;;5102683;28;20082;-71
2023/02/27 09:52:30;;;;;;;0.40;0.20;;;10.30;96.70;;;;;;5091017;28;20044;-72
2023/02/27 09:54:59;;;;;;;0.25;0.08;;;10.40;96.70;;;;;;5085544;28;20048;-73
2023/02/27 09:57:42;;;;;;;0.10;0.10;;;10.50;96.70;;;;;;5099885;28;20497;-73
2023/02/27 10:00:39;;;;;;;0.20;0.10;;;10.50;96.70;;;;;;5073994;28;20429;-73
2023/02/27 10:03:35;;;;;;;0.20;0.13;;;10.60;96.70;;;;;;5081865;28;20043;-73
2023/02/27 10:06:24;;;;;;;0.10;0.00;;;10.60;96.70;;;;;;5032665;28;20057;-72
2023/02/27 10:09:05;;;;;;;1.00;0.10;;;10.70;96.70;;;;;;5021917;28;20204;-72
2023/02/27 10:11:44;;;;;;;0.63;0.20;;;10.80;96.70;;;;;;5022993;28;20156;-71
2023/02/27 10:14:28;;;;;;;0.13;0.10;;;10.80;96.70;;;;;;5015219;28;20160;-71
2023/02/27 10:16:57;;;;;;;0.70;0.17;;;10.80;96.70;;;;;;5044705;28;20071;-72
2023/02/27 10:19:30;;;;;;;0.22;0.10;;;10.80;96.70;;;;;;5039607;28;20148;-71
2023/02/27 10:22:02;;;;;;;1.23;0.30;;;10.80;96.70;;;;;;5043524;28;20052;-71
2023/02/27 10:24:33;;;;;;;0.50;0.30;;;10.90;96.70;;;;;;5078709;28;20639;-71
2023/02/27 10:27:04;;;;;;;0.65;0.30;;;11.00;96.70;;;;;;5096787;28;20070;-71
2023/02/27 10:29:35;;;;;;;0.30;0.20;;;11.10;96.70;;;;;;5088913;28;20093;-70
2023/02/27 10:32:07;;;;;;;0.13;0.10;;;11.10;96.70;;;;;;5077509;28;20064;-71
2023/02/27 10:34:38;;;;;;;0.38;0.10;;;11.10;96.70;;;;;;5085817;28;20041;-70
2023/02/27 10:37:09;;;;;;;0.60;0.20;;;11.10;96.70;;;;;;5084795;28;20075;-70
2023/02/27 10:39:45;;;;;;;0.43;0.10;;;11.20;96.70;;;;;;5092243;28;20130;-70
2023/02/27 10:42:15;;;;;;;0.65;0.17;;;11.20;96.70;;;;;;5095831;28;20044;-71
2023/02/27 10:44:45;;;;;;;0.20;0.10;;;11.40;96.70;;;;;;5086284;28;20060;-71
2023/02/27 10:47:15;;;;;;;1.30;0.10;;;11.50;96.70;;;;;;5100218;28;20043;-70
2023/02/27 10:49:43;;;;;;;0.80;0.20;;;11.50;96.70;;;;;;5068467;28;20042;-71
2023/02/27 10:52:13;;;;;;;0.43;0.22;;;11.50;96.70;;;;;;5092078;28;20051;-72
2023/02/27 10:54:42;;;;;;;0.88;0.40;;;11.60;96.70;;;;;;5086354;28;20059;-70
2023/02/27 10:57:24;;;;;;;1.83;0.20;;;11.50;96.70;;;;;;5100738;28;20144;-71
2023/02/27 10:59:57;;;;;;;0.60;0.40;;;11.50;96.70;;;;;;5081336;28;20087;-71
2023/02/27 11:02:36;;;;;;;2.30;1.13;;;11.60;96.70;;;;;;5087229;28;20048;-71
2023/02/27 11:05:06;;;;;;;0.20;0.15;;;11.70;96.70;;;;;;5081252;28;20082;-71
2023/02/27 11:07:36;;;;;;;0.40;0.20;;;11.60;96.70;;;;;;5091586;28;20036;-72
2023/02/27 11:10:17;;;;;;;0.82;0.30;;;11.60;96.70;;;;;;5077369;27;20044;-72
2023/02/27 11:12:58;;;;;;;0.63;0.28;;;11.70;96.70;;;;;;5076783;28;20055;-73
2023/02/27 11:15:29;;;;;;;1.17;0.10;;;11.70;96.70;;;;;;5075837;28;20043;-72
2023/02/27 11:18:20;;;;;;;0.80;0.10;;;11.70;96.70;;;;;;5071348;28;20043;-71
2023/02/27 11:20:49;;;;;;;0.57;0.20;;;11.70;96.70;;;;;;5077792;28;20043;-70
2023/02/27 11:23:19;;;;;;;1.20;0.70;;;11.70;96.70;;;;;;5076401;28;20502;-71
2023/02/27 11:25:48;;;;;;;1.95;0.60;;;11.80;96.70;;;;;;5077141;28;20159;-71
2023/02/27 11:28:22;;;;;;;2.25;0.30;;;12.00;96.70;;;;;;5077552;28;20049;-71
2023/02/27 11:31:00;;;;;;;0.90;0.30;;;12.20;96.70;;;;;;5082171;28;20043;-70
2023/02/27 11:33:34;;;;;;;0.10;0.10;;;12.40;96.70;;;;;;5088443;28;20135;-71
2023/02/27 11:36:03;;;;;;;0.60;0.30;;;12.60;96.70;;;;;;5090363;28;20645;-72
2023/02/27 11:38:33;;;;;;;0.57;0.28;;;12.80;96.70;;;;;;5100805;28;20085;-72
2023/02/27 11:41:04;;;;;;;1.67;0.85;;;12.90;96.70;;;;;;5096875;28;20079;-71
2023/02/27 11:43:35;;;;;;;1.17;0.60;;;13.10;96.70;;;;;;5095505;28;20043;-71
2023/02/27 11:46:09;;;;;;;0.70;0.50;;;13.10;96.70;;;;;;5096254;28;20078;-71
2023/02/27 11:49:06;;;;;;;1.23;0.68;;;13.20;96.70;;;;;;5102535;28;20486;-71
2023/02/27 11:51:47;;;;;;;0.65;0.45;;;13.40;96.70;;;;;;5105034;28;20079;-70
2023/02/27 11:54:31;;;;;;;0.93;0.40;;;13.40;96.70;;;;;;5090736;28;20051;-71
2023/02/27 11:57:05;;;;;;;0.68;0.30;;;13.20;96.70;;;;;;5103578;28;20617;-71
2023/02/27 11:59:42;;;;;;;0.45;0.20;;;13.10;96.70;;;;;;5099192;28;20048;-71
2023/02/27 12:02:19;;;;;;;0.50;0.35;;;12.90;96.70;;;;;;5067675;28;20151;-71
2023/02/27 12:04:51;;;;;;;0.80;0.38;;;12.70;96.70;;;;;;5096386;28;20043;-71
2023/02/27 12:07:24;;;;;;;2.58;0.45;;;12.60;96.70;;;;;;5091884;28;20067;-71
2023/02/27 12:10:07;;;;;;;0.65;0.40;;;12.70;96.70;;;;;;5092685;28;20044;-71
2023/02/27 12:12:44;;;;;;;0.70;0.40;;;12.80;96.70;;;;;;5090876;28;20055;-71
2023/02/27 12:15:23;;;;;;;1.65;0.50;;;12.90;96.70;;;;;;5094139;28;20146;-71
2023/02/27 12:18:02;;;;;;;0.68;0.40;;;12.90;96.70;;;;;;5101528;28;20044;-71
2023/02/27 12:20:35;;;;;;;0.73;0.40;;;12.80;96.70;;;;;;5096903;28;20070;-72
2023/02/27 12:23:16;;;;;;;1.23;0.40;;;12.50;96.70;;;;;;5082427;28;20083;-71
2023/02/27 12:25:48;;;;;;;1.05;0.40;;;12.50;96.70;;;;;;5103876;28;20043;-71
2023/02/27 12:28:25;;;;;;;0.93;0.30;;;12.60;96.70;;;;;;5103044;28;20140;-71
2023/02/27 12:31:06;;;;;;;1.15;0.40;;;12.50;96.70;;;;;;5086889;28;20500;-71
2023/02/27 12:33:44;;;;;;;1.00;0.30;;;12.30;96.70;;;;;;5103130;28;20100;-71
2023/02/27 12:36:13;;;;;;;0.63;0.38;;;12.30;96.70;;;;;;5070071;28;20089;-71
2023/02/27 12:38:41;;;;;;;0.80;0.50;;;12.20;96.70;;;;;;5092315;28;20138;-71
2023/02/27 12:41:29;;;;;;;0.60;0.40;;;12.10;96.70;;;;;;5098555;28;20101;-71
2023/02/27 12:44:20;;;;;;;0.73;0.30;;;12.10;96.70;;;;;;5078623;28;20044;-71
2023/02/27 12:46:57;;;;;;;0.88;0.50;;;12.00;96.70;;;;;;5090690;28;20423;-71
2023/02/27 12:49:38;;;;;;;1.02;0.73;;;12.00;96.70;;;;;;5086585;28;20040;-71
2023/02/27 12:52:19;;;;;;;0.50;0.40;;;12.00;96.70;;;;;;5086290;28;20044;-71
2023/02/27 12:54:55;;;;;;;1.00;0.52;;;12.00;96.70;;;;;;5099405;28;20581;-71
2023/02/27 12:57:48;;;;;;;0.88;0.50;;;11.90;96.70;;;;;;5102075;28;20052;-71
2023/02/27 13:00:19;;;;;;;0.60;0.32;;;11.70;96.70;;;;;;5100653;28;20134;-71
2023/02/27 13:03:03;;;;;;;0.77;0.47;;;11.60;96.70;;;;;;5102411;28;20051;-70
2023/02/27 13:05:46;;;;;;;0.52;0.30;;;11.40;96.70;;;;;;5085984;28;20040;-71
2023/02/27 13:08:38;;;;;;;0.85;0.50;;;11.30;96.70;;;;;;5077871;28;20131;-70
2023/02/27 13:11:20;;;;;;;0.60;0.40;;;11.30;96.70;;;;;;5108260;27;20493;-71
2023/02/27 13:13:53;;;;;;;0.60;0.40;;;11.30;96.70;;;;;;5080532;28;20469;-70
2023/02/27 13:16:27;;;;;;;0.95;0.60;;;11.30;96.70;;;;;;5081506;28;20044;-70
2023/02/27 13:19:03;;;;;;;1.40;0.80;;;11.30;96.70;;;;;;5091293;28;20529;-71
2023/02/27 13:21:40;;;;;;;1.88;1.27;;;11.30;96.70;;;;;;5088802;28;20089;-72
2023/02/27 13:24:15;;;;;;;;;;;11.40;96.70;;;;;;5093276;28;20051;-71
2023/02/27 13:26:46;;;;;;;0.80;0.55;;;11.50;96.70;;;;;;5087294;28;19924;-71
2023/02/27 13:29:17;;;;;;;2.35;1.30;;;11.50;96.70;;;;;;5100531;28;20093;-72
2023/02/27 13:31:54;;;;;;;1.35;0.70;;;11.50;96.70;;;;;;5101096;28;20048;-70